Studley, Kansas
Current Conditions -  °F | °C
As of 6:53 AM on Sunday 21 Dec 2014 (Local Time) from KHLC Reporting Station
Haze Haze  
Wind Chill: 27°   Ceiling: Unl
Heat Index: 33°   Visibility: 6mi
Dew Point: 30°   Wind: 7mph
Humidity: 89%   Direction: 200°SSW
Pressure: 29.84"   Gusts: NA
Location:  39.2633°N, 100.442°W
Report Text: KHLC 211253Z AUTO 20006KT 6SM BR CLR 01/M01 A2984 RMK AO2 SLP115 T00061011
Loading
Personal Weather Stations






























Interactive Weather Map New forecast layout! Learn more

10-Day Weather Forecast

Advertisements
Track Severe Weather on mobile